sensor_id;sensor_type;location;lat;lon;timestamp;P1;durP1;ratioP1;P2;durP2;ratioP2
20101;SDS011;10210;52.284;9.892;2023-06-14T00:02:09;5.40;;;2.30;;
20101;SDS011;10210;52.284;9.892;2023-06-14T00:04:34;5.77;;;2.33;;
20101;SDS011;10210;52.284;9.892;2023-06-14T00:07:01;5.57;;;2.10;;
20101;SDS011;10210;52.284;9.892;2023-06-14T00:09:27;5.60;;;2.40;;
20101;SDS011;10210;52.284;9.892;2023-06-14T00:11:53;6.57;;;2.40;;
20101;SDS011;10210;52.284;9.892;2023-06-14T00:14:18;6.67;;;2.47;;
20101;SDS011;10210;52.284;9.892;2023-06-14T00:16:44;5.87;;;2.40;;
20101;SDS011;10210;52.284;9.892;2023-06-14T00:19:10;6.00;;;2.53;;
20101;SDS011;10210;52.284;9.892;2023-06-14T00:21:37;8.37;;;2.50;;
20101;SDS011;10210;52.284;9.892;2023-06-14T00:24:03;8.20;;;2.40;;
20101;SDS011;10210;52.284;9.892;2023-06-14T00:26:29;6.27;;;2.50;;
20101;SDS011;10210;52.284;9.892;2023-06-14T00:28:56;6.43;;;2.50;;
20101;SDS011;10210;52.284;9.892;2023-06-14T00:31:22;6.53;;;2.60;;
20101;SDS011;10210;52.284;9.892;2023-06-14T00:33:48;7.83;;;2.90;;
20101;SDS011;10210;52.284;9.892;2023-06-14T00:36:14;7.03;;;2.60;;
20101;SDS011;10210;52.284;9.892;2023-06-14T00:38:40;6.33;;;2.20;;
20101;SDS011;10210;52.284;9.892;2023-06-14T00:41:06;6.70;;;2.50;;
20101;SDS011;10210;52.284;9.892;2023-06-14T00:43:32;5.97;;;2.50;;
20101;SDS011;10210;52.284;9.892;2023-06-14T00:46:00;5.93;;;2.40;;
20101;SDS011;10210;52.284;9.892;2023-06-14T00:48:26;6.03;;;2.47;;
20101;SDS011;10210;52.284;9.892;2023-06-14T00:50:53;6.37;;;2.30;;
20101;SDS011;10210;52.284;9.892;2023-06-14T00:53:20;6.17;;;2.50;;
20101;SDS011;10210;52.284;9.892;2023-06-14T00:55:47;6.33;;;2.47;;
20101;SDS011;10210;52.284;9.892;2023-06-14T00:58:14;6.13;;;2.40;;
20101;SDS011;10210;52.284;9.892;2023-06-14T01:00:41;6.70;;;2.60;;
20101;SDS011;10210;52.284;9.892;2023-06-14T01:03:07;7.03;;;2.60;;
20101;SDS011;10210;52.284;9.892;2023-06-14T01:05:37;4.93;;;2.30;;
20101;SDS011;10210;52.284;9.892;2023-06-14T01:11:12;6.07;;;2.43;;
20101;SDS011;10210;52.284;9.892;2023-06-14T01:13:47;5.67;;;2.10;;
20101;SDS011;10210;52.284;9.892;2023-06-14T01:16:15;5.83;;;2.50;;
20101;SDS011;10210;52.284;9.892;2023-06-14T01:18:42;8.30;;;2.80;;
20101;SDS011;10210;52.284;9.892;2023-06-14T01:21:20;5.67;;;2.50;;
20101;SDS011;10210;52.284;9.892;2023-06-14T01:23:49;5.50;;;2.30;;
20101;SDS011;10210;52.284;9.892;2023-06-14T01:26:18;7.27;;;2.70;;
20101;SDS011;10210;52.284;9.892;2023-06-14T01:28:48;7.73;;;2.50;;
20101;SDS011;10210;52.284;9.892;2023-06-14T01:31:18;7.10;;;2.67;;
20101;SDS011;10210;52.284;9.892;2023-06-14T01:33:49;7.20;;;2.30;;
20101;SDS011;10210;52.284;9.892;2023-06-14T01:36:20;6.33;;;2.70;;
20101;SDS011;10210;52.284;9.892;2023-06-14T01:38:47;6.37;;;2.57;;
20101;SDS011;10210;52.284;9.892;2023-06-14T01:41:16;5.50;;;2.27;;
20101;SDS011;10210;52.284;9.892;2023-06-14T01:43:44;6.07;;;2.73;;
20101;SDS011;10210;52.284;9.892;2023-06-14T01:46:11;6.30;;;2.70;;
20101;SDS011;10210;52.284;9.892;2023-06-14T01:48:40;10.13;;;2.70;;
20101;SDS011;10210;52.284;9.892;2023-06-14T01:51:06;6.50;;;2.70;;
20101;SDS011;10210;52.284;9.892;2023-06-14T01:53:31;6.10;;;2.50;;
20101;SDS011;10210;52.284;9.892;2023-06-14T01:55:57;5.07;;;2.20;;
20101;SDS011;10210;52.284;9.892;2023-06-14T01:58:23;6.70;;;2.90;;
20101;SDS011;10210;52.284;9.892;2023-06-14T02:00:49;7.00;;;2.60;;
20101;SDS011;10210;52.284;9.892;2023-06-14T02:03:16;6.70;;;2.70;;
20101;SDS011;10210;52.284;9.892;2023-06-14T02:05:41;5.97;;;2.50;;
20101;SDS011;10210;52.284;9.892;2023-06-14T02:08:08;5.97;;;2.50;;
20101;SDS011;10210;52.284;9.892;2023-06-14T02:10:33;6.93;;;2.53;;
20101;SDS011;10210;52.284;9.892;2023-06-14T02:12:59;8.90;;;2.50;;
20101;SDS011;10210;52.284;9.892;2023-06-14T02:15:25;6.17;;;2.43;;
20101;SDS011;10210;52.284;9.892;2023-06-14T02:17:52;7.33;;;2.37;;
20101;SDS011;10210;52.284;9.892;2023-06-14T02:20:18;5.97;;;2.30;;
20101;SDS011;10210;52.284;9.892;2023-06-14T02:22:45;6.03;;;2.50;;
20101;SDS011;10210;52.284;9.892;2023-06-14T02:25:10;5.97;;;2.40;;
20101;SDS011;10210;52.284;9.892;2023-06-14T02:27:36;7.00;;;2.43;;
20101;SDS011;10210;52.284;9.892;2023-06-14T02:30:02;6.20;;;2.30;;
20101;SDS011;10210;52.284;9.892;2023-06-14T02:32:28;6.27;;;2.40;;
20101;SDS011;10210;52.284;9.892;2023-06-14T02:34:53;6.67;;;2.40;;
20101;SDS011;10210;52.284;9.892;2023-06-14T02:37:19;5.33;;;2.40;;
20101;SDS011;10210;52.284;9.892;2023-06-14T02:39:45;8.13;;;2.43;;
20101;SDS011;10210;52.284;9.892;2023-06-14T02:42:11;6.37;;;2.40;;
20101;SDS011;10210;52.284;9.892;2023-06-14T02:44:37;5.27;;;2.20;;
20101;SDS011;10210;52.284;9.892;2023-06-14T02:47:03;5.40;;;2.47;;
20101;SDS011;10210;52.284;9.892;2023-06-14T02:49:30;7.30;;;2.53;;
20101;SDS011;10210;52.284;9.892;2023-06-14T02:51:56;7.53;;;2.50;;
20101;SDS011;10210;52.284;9.892;2023-06-14T02:54:22;7.40;;;2.50;;
20101;SDS011;10210;52.284;9.892;2023-06-14T02:56:47;4.63;;;2.00;;
20101;SDS011;10210;52.284;9.892;2023-06-14T02:59:13;7.37;;;2.63;;
20101;SDS011;10210;52.284;9.892;2023-06-14T03:01:40;4.57;;;2.30;;
20101;SDS011;10210;52.284;9.892;2023-06-14T03:04:06;5.70;;;2.50;;
20101;SDS011;10210;52.284;9.892;2023-06-14T03:06:33;5.97;;;2.20;;
20101;SDS011;10210;52.284;9.892;2023-06-14T03:08:59;5.80;;;2.37;;
20101;SDS011;10210;52.284;9.892;2023-06-14T03:11:26;4.93;;;2.27;;
20101;SDS011;10210;52.284;9.892;2023-06-14T03:13:53;5.77;;;2.40;;
20101;SDS011;10210;52.284;9.892;2023-06-14T03:16:21;6.53;;;2.43;;
20101;SDS011;10210;52.284;9.892;2023-06-14T03:18:49;5.33;;;2.23;;
20101;SDS011;10210;52.284;9.892;2023-06-14T03:21:17;6.97;;;2.30;;
20101;SDS011;10210;52.284;9.892;2023-06-14T03:23:46;5.63;;;2.30;;
20101;SDS011;10210;52.284;9.892;2023-06-14T03:26:13;6.60;;;2.40;;
20101;SDS011;10210;52.284;9.892;2023-06-14T03:28:42;6.70;;;2.37;;
20101;SDS011;10210;52.284;9.892;2023-06-14T03:31:12;5.90;;;2.17;;
20101;SDS011;10210;52.284;9.892;2023-06-14T03:33:38;4.63;;;2.30;;
20101;SDS011;10210;52.284;9.892;2023-06-14T03:36:04;3.70;;;1.83;;
20101;SDS011;10210;52.284;9.892;2023-06-14T03:38:34;6.27;;;2.40;;
20101;SDS011;10210;52.284;9.892;2023-06-14T03:41:00;4.53;;;2.10;;
20101;SDS011;10210;52.284;9.892;2023-06-14T03:43:26;5.17;;;2.17;;
20101;SDS011;10210;52.284;9.892;2023-06-14T03:45:52;8.17;;;2.40;;
20101;SDS011;10210;52.284;9.892;2023-06-14T03:48:18;5.47;;;2.23;;
20101;SDS011;10210;52.284;9.892;2023-06-14T03:50:44;6.90;;;2.43;;
20101;SDS011;10210;52.284;9.892;2023-06-14T03:53:09;6.07;;;2.23;;
20101;SDS011;10210;52.284;9.892;2023-06-14T03:55:35;4.87;;;2.10;;
20101;SDS011;10210;52.284;9.892;2023-06-14T03:58:02;6.23;;;2.00;;
20101;SDS011;10210;52.284;9.892;2023-06-14T04:00:28;4.00;;;2.03;;
20101;SDS011;10210;52.284;9.892;2023-06-14T04:02:55;7.10;;;2.50;;
20101;SDS011;10210;52.284;9.892;2023-06-14T04:05:20;6.00;;;2.00;;
20101;SDS011;10210;52.284;9.892;2023-06-14T04:07:46;4.53;;;2.20;;
20101;SDS011;10210;52.284;9.892;2023-06-14T04:10:14;5.17;;;2.30;;
20101;SDS011;10210;52.284;9.892;2023-06-14T04:12:42;6.30;;;2.40;;
20101;SDS011;10210;52.284;9.892;2023-06-14T04:15:08;6.10;;;2.40;;
20101;SDS011;10210;52.284;9.892;2023-06-14T04:17:34;4.63;;;2.03;;
20101;SDS011;10210;52.284;9.892;2023-06-14T04:20:02;6.67;;;2.10;;
20101;SDS011;10210;52.284;9.892;2023-06-14T04:22:31;5.20;;;2.17;;
20101;SDS011;10210;52.284;9.892;2023-06-14T04:24:58;5.80;;;2.20;;
20101;SDS011;10210;52.284;9.892;2023-06-14T04:27:24;4.60;;;2.20;;
20101;SDS011;10210;52.284;9.892;2023-06-14T04:29:51;6.03;;;2.30;;
20101;SDS011;10210;52.284;9.892;2023-06-14T04:32:28;4.03;;;2.00;;
20101;SDS011;10210;52.284;9.892;2023-06-14T04:34:57;4.10;;;2.03;;
20101;SDS011;10210;52.284;9.892;2023-06-14T04:37:24;5.57;;;2.20;;
20101;SDS011;10210;52.284;9.892;2023-06-14T04:39:53;6.03;;;2.40;;
20101;SDS011;10210;52.284;9.892;2023-06-14T04:42:21;5.70;;;2.10;;
20101;SDS011;10210;52.284;9.892;2023-06-14T04:44:50;8.03;;;2.50;;
20101;SDS011;10210;52.284;9.892;2023-06-14T04:47:20;5.87;;;2.30;;
20101;SDS011;10210;52.284;9.892;2023-06-14T04:49:49;5.63;;;2.37;;
20101;SDS011;10210;52.284;9.892;2023-06-14T04:52:17;6.47;;;2.33;;
20101;SDS011;10210;52.284;9.892;2023-06-14T04:54:45;9.07;;;2.23;;
20101;SDS011;10210;52.284;9.892;2023-06-14T04:57:12;4.50;;;2.10;;
20101;SDS011;10210;52.284;9.892;2023-06-14T04:59:42;6.13;;;2.30;;
20101;SDS011;10210;52.284;9.892;2023-06-14T05:02:09;8.17;;;2.60;;
20101;SDS011;10210;52.284;9.892;2023-06-14T05:04:39;6.23;;;2.40;;
20101;SDS011;10210;52.284;9.892;2023-06-14T05:07:06;4.77;;;2.23;;
20101;SDS011;10210;52.284;9.892;2023-06-14T05:09:33;6.40;;;2.30;;
20101;SDS011;10210;52.284;9.892;2023-06-14T05:11:58;8.13;;;2.27;;
20101;SDS011;10210;52.284;9.892;2023-06-14T05:14:26;6.13;;;2.20;;
20101;SDS011;10210;52.284;9.892;2023-06-14T05:16:53;5.23;;;2.40;;
20101;SDS011;10210;52.284;9.892;2023-06-14T05:19:19;6.13;;;2.40;;
20101;SDS011;10210;52.284;9.892;2023-06-14T05:21:45;5.70;;;2.30;;
20101;SDS011;10210;52.284;9.892;2023-06-14T05:24:13;7.57;;;2.20;;
20101;SDS011;10210;52.284;9.892;2023-06-14T05:26:43;7.17;;;2.40;;
20101;SDS011;10210;52.284;9.892;2023-06-14T05:29:09;5.23;;;2.17;;
20101;SDS011;10210;52.284;9.892;2023-06-14T05:31:35;6.27;;;2.20;;
20101;SDS011;10210;52.284;9.892;2023-06-14T05:34:00;7.80;;;2.57;;
20101;SDS011;10210;52.284;9.892;2023-06-14T05:36:26;5.10;;;2.17;;
20101;SDS011;10210;52.284;9.892;2023-06-14T05:38:52;6.40;;;2.30;;
20101;SDS011;10210;52.284;9.892;2023-06-14T05:41:28;6.07;;;2.20;;
20101;SDS011;10210;52.284;9.892;2023-06-14T05:43:54;4.97;;;2.20;;
20101;SDS011;10210;52.284;9.892;2023-06-14T05:46:22;5.80;;;2.20;;
20101;SDS011;10210;52.284;9.892;2023-06-14T05:48:53;5.30;;;2.20;;
20101;SDS011;10210;52.284;9.892;2023-06-14T05:51:20;6.87;;;2.33;;
20101;SDS011;10210;52.284;9.892;2023-06-14T05:53:47;4.30;;;2.07;;
20101;SDS011;10210;52.284;9.892;2023-06-14T05:56:14;7.93;;;2.40;;
20101;SDS011;10210;52.284;9.892;2023-06-14T05:58:43;7.53;;;2.50;;
20101;SDS011;10210;52.284;9.892;2023-06-14T06:01:10;4.77;;;2.00;;
20101;SDS011;10210;52.284;9.892;2023-06-14T06:03:36;6.27;;;2.27;;
20101;SDS011;10210;52.284;9.892;2023-06-14T06:06:02;5.17;;;2.10;;
20101;SDS011;10210;52.284;9.892;2023-06-14T06:08:28;4.93;;;2.17;;
20101;SDS011;10210;52.284;9.892;2023-06-14T06:10:54;5.50;;;2.30;;
20101;SDS011;10210;52.284;9.892;2023-06-14T06:13:21;6.67;;;2.50;;
20101;SDS011;10210;52.284;9.892;2023-06-14T06:15:46;5.80;;;2.40;;
20101;SDS011;10210;52.284;9.892;2023-06-14T06:18:12;4.93;;;2.03;;
20101;SDS011;10210;52.284;9.892;2023-06-14T06:20:38;5.20;;;2.30;;
20101;SDS011;10210;52.284;9.892;2023-06-14T06:23:03;6.13;;;2.43;;
20101;SDS011;10210;52.284;9.892;2023-06-14T06:25:29;6.23;;;2.60;;
20101;SDS011;10210;52.284;9.892;2023-06-14T06:27:56;6.20;;;2.30;;
20101;SDS011;10210;52.284;9.892;2023-06-14T06:30:23;5.23;;;2.20;;
20101;SDS011;10210;52.284;9.892;2023-06-14T06:32:50;5.07;;;2.17;;
20101;SDS011;10210;52.284;9.892;2023-06-14T06:35:16;8.00;;;2.50;;
20101;SDS011;10210;52.284;9.892;2023-06-14T06:37:42;6.73;;;2.40;;
20101;SDS011;10210;52.284;9.892;2023-06-14T06:40:08;5.40;;;2.30;;
20101;SDS011;10210;52.284;9.892;2023-06-14T06:42:36;6.70;;;2.20;;
20101;SDS011;10210;52.284;9.892;2023-06-14T06:45:02;7.70;;;2.47;;
20101;SDS011;10210;52.284;9.892;2023-06-14T06:47:29;8.03;;;2.30;;
20101;SDS011;10210;52.284;9.892;2023-06-14T06:49:56;6.50;;;2.40;;
20101;SDS011;10210;52.284;9.892;2023-06-14T06:52:23;7.10;;;2.50;;
20101;SDS011;10210;52.284;9.892;2023-06-14T06:54:49;6.80;;;2.50;;
20101;SDS011;10210;52.284;9.892;2023-06-14T06:57:19;5.27;;;2.20;;
20101;SDS011;10210;52.284;9.892;2023-06-14T06:59:47;6.40;;;2.20;;
20101;SDS011;10210;52.284;9.892;2023-06-14T07:02:14;4.27;;;2.17;;
20101;SDS011;10210;52.284;9.892;2023-06-14T07:04:40;6.20;;;2.00;;
20101;SDS011;10210;52.284;9.892;2023-06-14T07:07:07;5.17;;;2.20;;
20101;SDS011;10210;52.284;9.892;2023-06-14T07:09:34;5.13;;;1.97;;
20101;SDS011;10210;52.284;9.892;2023-06-14T07:12:00;4.63;;;2.13;;
20101;SDS011;10210;52.284;9.892;2023-06-14T07:14:26;5.53;;;2.00;;
20101;SDS011;10210;52.284;9.892;2023-06-14T07:16:52;5.50;;;2.13;;
20101;SDS011;10210;52.284;9.892;2023-06-14T07:19:17;4.87;;;2.10;;
20101;SDS011;10210;52.284;9.892;2023-06-14T07:21:44;4.83;;;2.00;;
20101;SDS011;10210;52.284;9.892;2023-06-14T07:24:09;4.77;;;2.00;;
20101;SDS011;10210;52.284;9.892;2023-06-14T07:26:36;5.50;;;1.90;;
20101;SDS011;10210;52.284;9.892;2023-06-14T07:29:02;3.07;;;1.70;;
20101;SDS011;10210;52.284;9.892;2023-06-14T07:31:28;6.53;;;2.10;;
20101;SDS011;10210;52.284;9.892;2023-06-14T07:33:55;3.30;;;1.77;;
20101;SDS011;10210;52.284;9.892;2023-06-14T07:36:21;5.20;;;1.75;;
20101;SDS011;10210;52.284;9.892;2023-06-14T07:38:47;4.20;;;1.75;;
20101;SDS011;10210;52.284;9.892;2023-06-14T07:41:13;3.75;;;1.77;;
20101;SDS011;10210;52.284;9.892;2023-06-14T07:43:38;6.13;;;1.80;;
20101;SDS011;10210;52.284;9.892;2023-06-14T07:46:04;2.17;;;1.60;;
20101;SDS011;10210;52.284;9.892;2023-06-14T07:48:30;3.03;;;1.50;;
20101;SDS011;10210;52.284;9.892;2023-06-14T07:50:56;3.28;;;1.50;;
20101;SDS011;10210;52.284;9.892;2023-06-14T07:53:22;3.33;;;1.50;;
20101;SDS011;10210;52.284;9.892;2023-06-14T07:55:49;4.18;;;1.80;;
20101;SDS011;10210;52.284;9.892;2023-06-14T07:58:15;3.63;;;1.63;;
20101;SDS011;10210;52.284;9.892;2023-06-14T08:00:41;3.42;;;1.58;;
20101;SDS011;10210;52.284;9.892;2023-06-14T08:03:08;4.97;;;1.60;;
20101;SDS011;10210;52.284;9.892;2023-06-14T08:05:35;3.17;;;1.70;;
20101;SDS011;10210;52.284;9.892;2023-06-14T08:08:01;5.07;;;1.73;;
20101;SDS011;10210;52.284;9.892;2023-06-14T08:10:27;6.00;;;2.00;;
20101;SDS011;10210;52.284;9.892;2023-06-14T08:12:54;3.67;;;1.85;;
20101;SDS011;10210;52.284;9.892;2023-06-14T08:15:20;4.00;;;1.83;;
20101;SDS011;10210;52.284;9.892;2023-06-14T08:17:45;3.22;;;1.65;;
20101;SDS011;10210;52.284;9.892;2023-06-14T08:20:12;4.15;;;1.77;;
20101;SDS011;10210;52.284;9.892;2023-06-14T08:22:38;3.53;;;1.80;;
20101;SDS011;10210;52.284;9.892;2023-06-14T08:25:07;3.80;;;1.70;;
20101;SDS011;10210;52.284;9.892;2023-06-14T08:27:34;3.88;;;1.90;;
20101;SDS011;10210;52.284;9.892;2023-06-14T08:30:00;5.38;;;1.80;;
20101;SDS011;10210;52.284;9.892;2023-06-14T08:32:27;3.67;;;1.80;;
20101;SDS011;10210;52.284;9.892;2023-06-14T08:34:53;5.82;;;1.73;;
20101;SDS011;10210;52.284;9.892;2023-06-14T08:37:18;4.10;;;1.92;;
20101;SDS011;10210;52.284;9.892;2023-06-14T08:39:45;4.07;;;1.85;;
20101;SDS011;10210;52.284;9.892;2023-06-14T08:42:11;5.25;;;1.70;;
20101;SDS011;10210;52.284;9.892;2023-06-14T08:44:39;4.85;;;1.88;;
20101;SDS011;10210;52.284;9.892;2023-06-14T08:47:05;4.32;;;1.95;;
20101;SDS011;10210;52.284;9.892;2023-06-14T08:49:33;3.88;;;2.00;;
20101;SDS011;10210;52.284;9.892;2023-06-14T08:52:03;5.57;;;1.98;;
20101;SDS011;10210;52.284;9.892;2023-06-14T08:54:33;3.10;;;1.70;;
20101;SDS011;10210;52.284;9.892;2023-06-14T08:57:08;3.40;;;1.55;;
20101;SDS011;10210;52.284;9.892;2023-06-14T08:59:41;4.47;;;2.03;;
20101;SDS011;10210;52.284;9.892;2023-06-14T09:02:14;4.60;;;1.60;;
20101;SDS011;10210;52.284;9.892;2023-06-14T09:04:42;2.92;;;1.63;;
20101;SDS011;10210;52.284;9.892;2023-06-14T09:07:09;4.68;;;1.63;;
20101;SDS011;10210;52.284;9.892;2023-06-14T09:09:39;3.47;;;1.70;;
20101;SDS011;10210;52.284;9.892;2023-06-14T09:12:07;3.47;;;1.90;;
20101;SDS011;10210;52.284;9.892;2023-06-14T09:14:36;4.65;;;1.73;;
20101;SDS011;10210;52.284;9.892;2023-06-14T09:17:04;3.80;;;1.80;;
20101;SDS011;10210;52.284;9.892;2023-06-14T09:19:31;3.13;;;1.70;;
20101;SDS011;10210;52.284;9.892;2023-06-14T09:21:58;4.38;;;1.90;;
20101;SDS011;10210;52.284;9.892;2023-06-14T09:24:24;3.28;;;1.70;;
20101;SDS011;10210;52.284;9.892;2023-06-14T09:26:51;3.30;;;1.70;;
20101;SDS011;10210;52.284;9.892;2023-06-14T09:29:17;6.72;;;1.80;;
20101;SDS011;10210;52.284;9.892;2023-06-14T09:31:47;2.38;;;1.52;;
20101;SDS011;10210;52.284;9.892;2023-06-14T09:34:13;2.42;;;1.60;;
20101;SDS011;10210;52.284;9.892;2023-06-14T09:36:41;3.03;;;1.65;;
20101;SDS011;10210;52.284;9.892;2023-06-14T09:39:07;3.97;;;1.80;;
20101;SDS011;10210;52.284;9.892;2023-06-14T09:41:34;3.65;;;1.85;;
20101;SDS011;10210;52.284;9.892;2023-06-14T09:44:08;2.97;;;1.70;;
20101;SDS011;10210;52.284;9.892;2023-06-14T09:46:35;3.50;;;1.73;;
20101;SDS011;10210;52.284;9.892;2023-06-14T09:49:02;4.65;;;1.95;;
20101;SDS011;10210;52.284;9.892;2023-06-14T09:51:29;5.05;;;1.90;;
20101;SDS011;10210;52.284;9.892;2023-06-14T09:54:00;4.13;;;1.67;;
20101;SDS011;10210;52.284;9.892;2023-06-14T09:56:30;5.05;;;1.85;;
20101;SDS011;10210;52.284;9.892;2023-06-14T09:59:09;4.40;;;1.80;;
20101;SDS011;10210;52.284;9.892;2023-06-14T10:01:42;2.63;;;1.60;;
20101;SDS011;10210;52.284;9.892;2023-06-14T10:04:10;3.03;;;1.87;;
20101;SDS011;10210;52.284;9.892;2023-06-14T10:06:42;3.47;;;1.70;;
20101;SDS011;10210;52.284;9.892;2023-06-14T10:09:12;3.07;;;1.70;;
20101;SDS011;10210;52.284;9.892;2023-06-14T10:11:39;4.47;;;1.80;;
20101;SDS011;10210;52.284;9.892;2023-06-14T10:14:08;3.87;;;1.90;;
20101;SDS011;10210;52.284;9.892;2023-06-14T10:16:39;3.40;;;1.70;;
20101;SDS011;10210;52.284;9.892;2023-06-14T10:19:34;3.47;;;1.70;;
20101;SDS011;10210;52.284;9.892;2023-06-14T10:22:19;6.17;;;2.03;;
20101;SDS011;10210;52.284;9.892;2023-06-14T10:24:56;4.33;;;1.93;;
20101;SDS011;10210;52.284;9.892;2023-06-14T10:27:21;4.27;;;2.20;;
20101;SDS011;10210;52.284;9.892;2023-06-14T10:32:26;5.17;;;1.80;;
20101;SDS011;10210;52.284;9.892;2023-06-14T10:34:56;4.57;;;2.03;;
20101;SDS011;10210;52.284;9.892;2023-06-14T10:37:26;5.03;;;2.30;;
20101;SDS011;10210;52.284;9.892;2023-06-14T10:39:53;5.30;;;2.30;;
20101;SDS011;10210;52.284;9.892;2023-06-14T10:42:18;5.23;;;2.30;;
20101;SDS011;10210;52.284;9.892;2023-06-14T10:44:51;4.27;;;2.00;;
20101;SDS011;10210;52.284;9.892;2023-06-14T10:50:07;5.20;;;2.30;;
20101;SDS011;10210;52.284;9.892;2023-06-14T10:52:37;5.73;;;2.30;;
20101;SDS011;10210;52.284;9.892;2023-06-14T10:57:43;6.20;;;2.17;;
20101;SDS011;10210;52.284;9.892;2023-06-14T11:00:12;7.47;;;2.30;;
20101;SDS011;10210;52.284;9.892;2023-06-14T11:02:50;6.23;;;2.20;;
20101;SDS011;10210;52.284;9.892;2023-06-14T11:05:53;3.83;;;1.87;;
20101;SDS011;10210;52.284;9.892;2023-06-14T11:11:49;5.00;;;2.20;;
20101;SDS011;10210;52.284;9.892;2023-06-14T11:14:20;5.87;;;2.10;;
20101;SDS011;10210;52.284;9.892;2023-06-14T11:16:49;3.90;;;2.00;;
20101;SDS011;10210;52.284;9.892;2023-06-14T11:19:15;5.30;;;2.27;;
20101;SDS011;10210;52.284;9.892;2023-06-14T11:21:42;7.60;;;2.20;;
20101;SDS011;10210;52.284;9.892;2023-06-14T11:24:12;4.20;;;2.00;;
20101;SDS011;10210;52.284;9.892;2023-06-14T11:26:38;6.57;;;2.23;;
20101;SDS011;10210;52.284;9.892;2023-06-14T11:29:05;3.70;;;1.90;;
20101;SDS011;10210;52.284;9.892;2023-06-14T11:31:31;6.53;;;2.23;;
20101;SDS011;10210;52.284;9.892;2023-06-14T11:33:58;7.90;;;2.43;;
20101;SDS011;10210;52.284;9.892;2023-06-14T11:36:31;5.50;;;2.33;;
20101;SDS011;10210;52.284;9.892;2023-06-14T11:39:02;5.37;;;2.33;;
20101;SDS011;10210;52.284;9.892;2023-06-14T11:41:42;4.03;;;2.00;;
20101;SDS011;10210;52.284;9.892;2023-06-14T11:44:09;5.17;;;2.27;;
20101;SDS011;10210;52.284;9.892;2023-06-14T11:46:39;6.77;;;2.37;;
20101;SDS011;10210;52.284;9.892;2023-06-14T11:49:06;5.10;;;2.23;;
20101;SDS011;10210;52.284;9.892;2023-06-14T11:51:34;6.77;;;2.53;;
20101;SDS011;10210;52.284;9.892;2023-06-14T11:54:01;5.90;;;2.40;;
20101;SDS011;10210;52.284;9.892;2023-06-14T11:56:29;5.73;;;2.27;;
20101;SDS011;10210;52.284;9.892;2023-06-14T11:58:58;6.00;;;2.30;;
20101;SDS011;10210;52.284;9.892;2023-06-14T12:01:25;7.50;;;2.50;;
20101;SDS011;10210;52.284;9.892;2023-06-14T12:03:52;5.80;;;2.20;;
20101;SDS011;10210;52.284;9.892;2023-06-14T12:06:27;7.00;;;2.53;;
20101;SDS011;10210;52.284;9.892;2023-06-14T12:08:58;4.93;;;2.37;;
20101;SDS011;10210;52.284;9.892;2023-06-14T12:11:28;4.73;;;2.43;;
20101;SDS011;10210;52.284;9.892;2023-06-14T12:13:58;6.33;;;2.37;;
20101;SDS011;10210;52.284;9.892;2023-06-14T12:16:29;5.03;;;2.37;;
20101;SDS011;10210;52.284;9.892;2023-06-14T12:19:01;5.00;;;2.30;;
20101;SDS011;10210;52.284;9.892;2023-06-14T12:21:41;5.17;;;2.40;;
20101;SDS011;10210;52.284;9.892;2023-06-14T12:24:12;4.67;;;2.40;;
20101;SDS011;10210;52.284;9.892;2023-06-14T12:26:38;8.30;;;2.70;;
20101;SDS011;10210;52.284;9.892;2023-06-14T12:29:06;5.50;;;2.07;;
20101;SDS011;10210;52.284;9.892;2023-06-14T12:31:32;8.57;;;2.87;;
20101;SDS011;10210;52.284;9.892;2023-06-14T12:33:59;6.17;;;2.57;;
20101;SDS011;10210;52.284;9.892;2023-06-14T12:36:25;4.83;;;2.40;;
20101;SDS011;10210;52.284;9.892;2023-06-14T12:38:51;6.57;;;2.70;;
20101;SDS011;10210;52.284;9.892;2023-06-14T12:41:20;8.70;;;2.60;;
20101;SDS011;10210;52.284;9.892;2023-06-14T12:43:47;7.93;;;3.00;;
20101;SDS011;10210;52.284;9.892;2023-06-14T12:46:13;6.17;;;2.67;;
20101;SDS011;10210;52.284;9.892;2023-06-14T12:48:39;6.53;;;2.60;;
20101;SDS011;10210;52.284;9.892;2023-06-14T12:51:05;6.00;;;2.47;;
20101;SDS011;10210;52.284;9.892;2023-06-14T12:53:30;9.73;;;2.87;;
20101;SDS011;10210;52.284;9.892;2023-06-14T12:55:56;7.20;;;2.97;;
20101;SDS011;10210;52.284;9.892;2023-06-14T12:58:22;5.83;;;2.43;;
20101;SDS011;10210;52.284;9.892;2023-06-14T13:00:48;8.17;;;2.70;;
20101;SDS011;10210;52.284;9.892;2023-06-14T13:03:14;6.37;;;2.60;;
20101;SDS011;10210;52.284;9.892;2023-06-14T13:05:40;9.47;;;2.70;;
20101;SDS011;10210;52.284;9.892;2023-06-14T13:08:07;8.67;;;3.10;;
20101;SDS011;10210;52.284;9.892;2023-06-14T13:10:33;10.23;;;3.43;;
20101;SDS011;10210;52.284;9.892;2023-06-14T13:12:59;7.60;;;3.07;;
20101;SDS011;10210;52.284;9.892;2023-06-14T13:15:25;8.93;;;2.80;;
20101;SDS011;10210;52.284;9.892;2023-06-14T13:17:52;7.07;;;3.00;;
20101;SDS011;10210;52.284;9.892;2023-06-14T13:20:18;7.77;;;2.80;;
20101;SDS011;10210;52.284;9.892;2023-06-14T13:22:43;6.67;;;2.80;;
20101;SDS011;10210;52.284;9.892;2023-06-14T13:25:09;5.97;;;2.53;;
20101;SDS011;10210;52.284;9.892;2023-06-14T13:27:36;8.40;;;2.83;;
20101;SDS011;10210;52.284;9.892;2023-06-14T13:30:02;6.90;;;2.93;;
20101;SDS011;10210;52.284;9.892;2023-06-14T13:32:30;9.10;;;2.90;;
20101;SDS011;10210;52.284;9.892;2023-06-14T13:34:56;7.80;;;2.80;;
20101;SDS011;10210;52.284;9.892;2023-06-14T13:37:22;8.20;;;2.60;;
20101;SDS011;10210;52.284;9.892;2023-06-14T13:39:47;7.53;;;2.80;;
20101;SDS011;10210;52.284;9.892;2023-06-14T13:42:13;5.23;;;2.57;;
20101;SDS011;10210;52.284;9.892;2023-06-14T13:44:39;10.07;;;3.10;;
20101;SDS011;10210;52.284;9.892;2023-06-14T13:47:04;9.87;;;2.93;;
20101;SDS011;10210;52.284;9.892;2023-06-14T13:49:31;7.23;;;2.73;;
20101;SDS011;10210;52.284;9.892;2023-06-14T13:51:58;7.23;;;2.70;;
20101;SDS011;10210;52.284;9.892;2023-06-14T13:54:23;6.87;;;2.77;;
20101;SDS011;10210;52.284;9.892;2023-06-14T13:56:49;5.67;;;2.53;;
20101;SDS011;10210;52.284;9.892;2023-06-14T13:59:15;6.43;;;2.70;;
20101;SDS011;10210;52.284;9.892;2023-06-14T14:01:42;6.57;;;2.43;;
20101;SDS011;10210;52.284;9.892;2023-06-14T14:04:08;8.83;;;3.00;;
20101;SDS011;10210;52.284;9.892;2023-06-14T14:06:34;8.67;;;2.73;;
20101;SDS011;10210;52.284;9.892;2023-06-14T14:09:00;9.80;;;3.17;;
20101;SDS011;10210;52.284;9.892;2023-06-14T14:11:26;11.03;;;2.90;;
20101;SDS011;10210;52.284;9.892;2023-06-14T14:13:53;8.73;;;2.80;;
20101;SDS011;10210;52.284;9.892;2023-06-14T14:16:20;9.50;;;2.77;;
20101;SDS011;10210;52.284;9.892;2023-06-14T14:18:46;9.07;;;2.67;;
20101;SDS011;10210;52.284;9.892;2023-06-14T14:21:11;7.47;;;2.70;;
20101;SDS011;10210;52.284;9.892;2023-06-14T14:23:37;8.30;;;2.80;;
20101;SDS011;10210;52.284;9.892;2023-06-14T14:26:03;9.77;;;2.90;;
20101;SDS011;10210;52.284;9.892;2023-06-14T14:28:29;5.37;;;2.40;;
20101;SDS011;10210;52.284;9.892;2023-06-14T14:30:57;8.37;;;2.67;;
20101;SDS011;10210;52.284;9.892;2023-06-14T14:33:24;7.90;;;2.60;;
20101;SDS011;10210;52.284;9.892;2023-06-14T14:35:50;6.43;;;2.50;;
20101;SDS011;10210;52.284;9.892;2023-06-14T14:38:16;7.40;;;2.38;;
20101;SDS011;10210;52.284;9.892;2023-06-14T14:40:44;9.85;;;2.75;;
20101;SDS011;10210;52.284;9.892;2023-06-14T14:43:10;7.03;;;2.70;;
20101;SDS011;10210;52.284;9.892;2023-06-14T14:45:37;10.67;;;2.90;;
20101;SDS011;10210;52.284;9.892;2023-06-14T14:48:03;7.07;;;2.43;;
20101;SDS011;10210;52.284;9.892;2023-06-14T14:50:29;9.67;;;3.00;;
20101;SDS011;10210;52.284;9.892;2023-06-14T14:52:55;8.63;;;2.70;;
20101;SDS011;10210;52.284;9.892;2023-06-14T14:55:21;6.83;;;2.60;;
20101;SDS011;10210;52.284;9.892;2023-06-14T14:57:47;8.20;;;3.03;;
20101;SDS011;10210;52.284;9.892;2023-06-14T15:00:13;8.27;;;2.80;;
20101;SDS011;10210;52.284;9.892;2023-06-14T15:02:39;9.63;;;3.03;;
20101;SDS011;10210;52.284;9.892;2023-06-14T15:05:05;6.20;;;2.73;;